Time;durP1;ratioP1;P1;durP2;ratioP2;P2;SDS_P1;SDS_P2;PMS_P1;PMS_P2;Temp;Humidity;BMP_temperature;BMP_pressure;BME280_temperature;BME280_humidity;BME280_pressure;Samples;Min_cycle;Max_cycle;Signal;HPM_P1;HPM_P2
2022/12/17 13:06:09;;;;;;;52.00;26.85;;;;;;;;;;5054142;28;20419;-76
2022/12/17 13:08:35;;;;;;;54.03;25.55;;;;;;;;;;5054578;28;20072;-77
2022/12/17 13:11:26;;;;;;;49.90;24.95;;;;;;;;;;5056385;28;20105;-77
2022/12/17 13:13:56;;;;;;;56.17;26.60;;;;;;;;;;5063493;28;20443;-76
2022/12/17 13:16:31;;;;;;;54.47;27.27;;;;;;;;;;5054322;28;20114;-76
2022/12/17 13:19:01;;;;;;;51.97;26.75;;;;;;;;;;5054669;28;20041;-77
2022/12/17 13:21:28;;;;;;;50.60;25.55;;;;;;;;;;5034942;28;20068;-77
2022/12/17 13:23:54;;;;;;;51.13;27.83;;;;;;;;;;5034561;28;20045;-76
2022/12/17 13:26:31;;;;;;;48.80;24.75;;;;;;;;;;5052308;28;20110;-76
2022/12/17 13:28:57;;;;;;;53.08;26.27;;;;;;;;;;5054111;28;20434;-77
2022/12/17 13:31:27;;;;;;;53.85;26.30;;;;;;;;;;5053539;28;20053;-77
2022/12/17 13:34:16;;;;;;;55.42;25.92;;;;;;;;;;5054095;28;20045;-76
2022/12/17 13:36:46;;;;;;;52.33;26.60;;;;;;;;;;5051976;28;20172;-76
2022/12/17 13:39:18;;;;;;;53.17;26.38;;;;;;;;;;5053058;28;20067;-77
2022/12/17 13:41:44;;;;;;;53.00;25.50;;;;;;;;;;5043577;28;20048;-76
2022/12/17 13:44:21;;;;;;;52.35;26.55;;;;;;;;;;5053745;28;20095;-77
2022/12/17 13:46:48;;;;;;;57.70;26.80;;;;;;;;;;5053757;28;20070;-77
2022/12/17 13:49:17;;;;;;;61.28;29.88;;;;;;;;;;5034926;28;20045;-77
2022/12/17 13:51:43;;;;;;;52.35;26.95;;;;;;;;;;5053809;28;20098;-77
2022/12/17 13:54:17;;;;;;;49.38;26.35;;;;;;;;;;5035715;28;20159;-76
2022/12/17 13:56:43;;;;;;;56.65;26.75;;;;;;;;;;5052912;28;20179;-76
2022/12/17 13:59:20;;;;;;;53.22;28.42;;;;;;;;;;5054057;28;20057;-76
2022/12/17 14:01:47;;;;;;;60.83;29.50;;;;;;;;;;5052737;28;20063;-76
2022/12/17 14:04:21;;;;;;;57.75;28.08;;;;;;;;;;5030614;28;20112;-78
2022/12/17 14:06:47;;;;;;;67.93;31.02;;;;;;;;;;5019567;28;20457;-79
2022/12/17 14:09:17;;;;;;;62.80;30.67;;;;;;;;;;5054097;28;20044;-79
2022/12/17 14:14:30;;;;;;;59.55;28.05;;;;;;;;;;5036027;28;20058;-79
2022/12/17 14:16:56;;;;;;;59.85;29.15;;;;;;;;;;5035851;28;20053;-79
2022/12/17 14:19:23;;;;;;;59.35;29.40;;;;;;;;;;5035928;28;20049;-79
2022/12/17 14:21:50;;;;;;;55.58;27.13;;;;;;;;;;5055499;28;20049;-78
2022/12/17 14:24:25;;;;;;;62.13;29.30;;;;;;;;;;5061520;28;20041;-78
2022/12/17 14:26:59;;;;;;;58.13;27.92;;;;;;;;;;5046285;28;20041;-78
2022/12/17 14:29:32;;;;;;;64.20;31.90;;;;;;;;;;5060020;28;20413;-79
2022/12/17 14:31:59;;;;;;;61.45;28.83;;;;;;;;;;5059413;28;20110;-79
2022/12/17 14:34:26;;;;;;;56.00;28.58;;;;;;;;;;5059706;28;20044;-79
2022/12/17 14:36:53;;;;;;;56.95;27.92;;;;;;;;;;5035261;28;20123;-79
2022/12/17 14:39:22;;;;;;;65.65;30.08;;;;;;;;;;5053130;28;20095;-79
2022/12/17 14:44:49;;;;;;;66.30;31.27;;;;;;;;;;5012758;28;20061;-79
2022/12/17 14:47:20;;;;;;;70.40;31.95;;;;;;;;;;5035820;28;20041;-83
2022/12/17 14:49:51;;;;;;;61.17;29.45;;;;;;;;;;5030292;28;20373;-78
2022/12/17 14:52:41;;;;;;;60.35;29.08;;;;;;;;;;5057345;28;20472;-78
2022/12/17 14:55:24;;;;;;;62.47;30.63;;;;;;;;;;5031024;28;20049;-77
2022/12/17 14:57:53;;;;;;;59.83;27.65;;;;;;;;;;5059635;28;20496;-79
2022/12/17 15:00:20;;;;;;;65.35;29.98;;;;;;;;;;5054037;28;20041;-78
2022/12/17 15:02:50;;;;;;;74.72;32.08;;;;;;;;;;5056354;28;20051;-78
2022/12/17 15:05:16;;;;;;;65.53;29.25;;;;;;;;;;5056747;28;20469;-77
2022/12/17 15:07:43;;;;;;;64.40;30.77;;;;;;;;;;5056816;28;20049;-79
2022/12/17 15:10:10;;;;;;;66.18;30.83;;;;;;;;;;5060032;28;20106;-79
2022/12/17 15:12:36;;;;;;;66.30;30.98;;;;;;;;;;5057607;28;20088;-78
2022/12/17 15:15:02;;;;;;;63.55;30.63;;;;;;;;;;5038939;28;20053;-79
2022/12/17 15:17:28;;;;;;;61.88;30.02;;;;;;;;;;5055679;28;20037;-79
2022/12/17 15:19:54;;;;;;;70.40;31.45;;;;;;;;;;5056765;28;20056;-78
2022/12/17 15:22:20;;;;;;;70.80;30.73;;;;;;;;;;5056793;28;20389;-79
2022/12/17 15:24:46;;;;;;;69.00;32.25;;;;;;;;;;5056760;28;20045;-79
2022/12/17 15:27:16;;;;;;;69.03;31.75;;;;;;;;;;5056688;28;20044;-79
2022/12/17 15:29:42;;;;;;;78.65;32.97;;;;;;;;;;5060308;28;20048;-79
2022/12/17 15:32:19;;;;;;;75.00;31.67;;;;;;;;;;5041859;28;20080;-80
2022/12/17 15:34:46;;;;;;;70.93;33.38;;;;;;;;;;5060411;28;20049;-80
2022/12/17 15:37:12;;;;;;;78.97;32.85;;;;;;;;;;5039460;28;20502;-80
2022/12/17 15:39:38;;;;;;;73.68;33.88;;;;;;;;;;5043188;28;20049;-80
2022/12/17 15:44:48;;;;;;;74.07;30.60;;;;;;;;;;5050124;28;20045;-80
2022/12/17 15:47:14;;;;;;;73.22;33.55;;;;;;;;;;5069065;28;20514;-78
2022/12/17 15:49:42;;;;;;;75.95;33.40;;;;;;;;;;5066492;28;20570;-79
2022/12/17 15:52:08;;;;;;;74.40;33.92;;;;;;;;;;5037994;28;20053;-78
2022/12/17 15:54:34;;;;;;;80.63;35.30;;;;;;;;;;5055514;28;20044;-77
2022/12/17 15:57:00;;;;;;;76.38;32.90;;;;;;;;;;5054253;28;20045;-77
2022/12/17 15:59:26;;;;;;;75.68;33.22;;;;;;;;;;5046783;28;20033;-77
2022/12/17 16:01:52;;;;;;;84.40;36.08;;;;;;;;;;5049895;28;20053;-77
2022/12/17 16:04:18;;;;;;;70.97;31.23;;;;;;;;;;5053498;28;20087;-77
2022/12/17 16:06:44;;;;;;;79.68;32.85;;;;;;;;;;5049682;28;20045;-77
2022/12/17 16:09:10;;;;;;;81.63;35.13;;;;;;;;;;5059517;28;20052;-77
2022/12/17 16:11:36;;;;;;;82.47;34.85;;;;;;;;;;5049018;28;20048;-77
2022/12/17 16:14:02;;;;;;;73.57;33.88;;;;;;;;;;5054595;28;20080;-77
2022/12/17 16:16:30;;;;;;;77.18;32.83;;;;;;;;;;5053270;28;20055;-77
2022/12/17 16:18:56;;;;;;;78.05;35.78;;;;;;;;;;5048413;28;20477;-77
2022/12/17 16:21:22;;;;;;;73.78;32.80;;;;;;;;;;5053160;28;20574;-77
2022/12/17 16:23:48;;;;;;;79.00;33.75;;;;;;;;;;5055055;28;20041;-77
2022/12/17 16:26:14;;;;;;;83.45;34.42;;;;;;;;;;5054451;28;20114;-77
2022/12/17 16:28:40;;;;;;;78.70;34.20;;;;;;;;;;5055902;28;20111;-77
2022/12/17 16:31:08;;;;;;;75.32;32.50;;;;;;;;;;5054302;28;20128;-77
2022/12/17 16:33:34;;;;;;;79.78;36.00;;;;;;;;;;5052751;28;20048;-77
2022/12/17 16:36:01;;;;;;;76.70;34.25;;;;;;;;;;5054294;28;20077;-77
2022/12/17 16:38:27;;;;;;;83.80;35.47;;;;;;;;;;5053271;28;20079;-77
2022/12/17 16:40:57;;;;;;;83.72;35.67;;;;;;;;;;5034707;28;20049;-77
2022/12/17 16:43:23;;;;;;;81.60;34.70;;;;;;;;;;5054105;28;20484;-77
2022/12/17 16:45:50;;;;;;;78.90;35.20;;;;;;;;;;5054437;28;20056;-77
2022/12/17 16:48:18;;;;;;;78.85;33.58;;;;;;;;;;5050402;28;20124;-77
2022/12/17 16:50:44;;;;;;;77.45;34.40;;;;;;;;;;5036173;28;20099;-77
2022/12/17 16:53:10;;;;;;;72.93;31.85;;;;;;;;;;5048839;28;20041;-77
2022/12/17 16:55:43;;;;;;;86.38;34.10;;;;;;;;;;5050137;28;20045;-77
2022/12/17 16:58:09;;;;;;;78.03;33.78;;;;;;;;;;5059836;28;20044;-76
2022/12/17 17:00:36;;;;;;;78.70;33.47;;;;;;;;;;5057865;28;20396;-76
2022/12/17 17:03:02;;;;;;;85.28;35.67;;;;;;;;;;5055177;28;20501;-77
2022/12/17 17:05:31;;;;;;;75.50;33.28;;;;;;;;;;5055092;28;20092;-77
2022/12/17 17:07:57;;;;;;;77.60;31.23;;;;;;;;;;5067838;28;20044;-77
2022/12/17 17:10:23;;;;;;;80.90;32.63;;;;;;;;;;5052672;28;20120;-77
2022/12/17 17:12:51;;;;;;;79.60;32.67;;;;;;;;;;5064459;28;20072;-76
2022/12/17 17:15:17;;;;;;;78.85;33.22;;;;;;;;;;5056755;28;20049;-77
2022/12/17 17:17:43;;;;;;;82.95;35.33;;;;;;;;;;5059110;28;20082;-77
2022/12/17 17:20:10;;;;;;;77.32;34.42;;;;;;;;;;5062627;28;20087;-76
2022/12/17 17:22:36;;;;;;;84.63;36.33;;;;;;;;;;5058113;28;20044;-77
2022/12/17 17:25:02;;;;;;;70.25;30.92;;;;;;;;;;5059289;28;20133;-77
2022/12/17 17:27:28;;;;;;;73.93;31.13;;;;;;;;;;5054462;28;20052;-81
2022/12/17 17:29:55;;;;;;;77.95;33.20;;;;;;;;;;5041584;28;20091;-80
2022/12/17 17:32:22;;;;;;;80.13;34.35;;;;;;;;;;5036903;28;20064;-77
2022/12/17 17:34:48;;;;;;;77.45;31.50;;;;;;;;;;5064361;28;20492;-78
2022/12/17 17:37:14;;;;;;;82.68;34.47;;;;;;;;;;5078398;28;20497;-79
2022/12/17 17:39:40;;;;;;;79.20;34.08;;;;;;;;;;5057731;28;20497;-79
2022/12/17 17:42:06;;;;;;;82.85;33.47;;;;;;;;;;5072253;28;20156;-77
2022/12/17 17:44:32;;;;;;;72.70;32.13;;;;;;;;;;5058110;28;20049;-77
2022/12/17 17:46:58;;;;;;;75.35;32.28;;;;;;;;;;5056201;28;20110;-77
2022/12/17 17:49:24;;;;;;;79.53;31.65;;;;;;;;;;5054778;28;20041;-78
2022/12/17 17:51:50;;;;;;;73.55;31.27;;;;;;;;;;5062175;28;20235;-78
2022/12/17 17:54:16;;;;;;;78.68;33.70;;;;;;;;;;5068737;28;20037;-78
2022/12/17 17:56:43;;;;;;;83.82;34.17;;;;;;;;;;5039782;28;20037;-81
2022/12/17 17:59:19;;;;;;;77.18;31.50;;;;;;;;;;5029026;28;20053;-78
2022/12/17 18:01:46;;;;;;;76.30;32.08;;;;;;;;;;5051887;28;20417;-77
2022/12/17 18:04:14;;;;;;;79.85;37.80;;;;;;;;;;5032126;28;20045;-77
2022/12/17 18:06:41;;;;;;;69.40;31.67;;;;;;;;;;5040009;28;20040;-77
2022/12/17 18:09:08;;;;;;;74.07;30.65;;;;;;;;;;5043205;28;20088;-77
2022/12/17 18:11:35;;;;;;;83.18;30.58;;;;;;;;;;5036018;28;20055;-77
2022/12/17 18:14:02;;;;;;;73.40;31.15;;;;;;;;;;5041860;28;20057;-77
2022/12/17 18:16:28;;;;;;;83.13;34.38;;;;;;;;;;5031948;28;20052;-76
2022/12/17 18:18:56;;;;;;;87.05;34.75;;;;;;;;;;5028395;28;20045;-77
2022/12/17 18:21:22;;;;;;;82.63;33.75;;;;;;;;;;5025300;28;20052;-77
2022/12/17 18:23:48;;;;;;;81.72;34.05;;;;;;;;;;5028471;28;20042;-77
2022/12/17 18:26:16;;;;;;;75.13;32.35;;;;;;;;;;5006404;28;20048;-77
2022/12/17 18:28:42;;;;;;;81.90;35.00;;;;;;;;;;5032720;28;20390;-77
2022/12/17 18:31:10;;;;;;;76.50;30.67;;;;;;;;;;5014927;28;20045;-77
2022/12/17 18:33:37;;;;;;;92.65;33.90;;;;;;;;;;5032546;28;20045;-77
2022/12/17 18:36:07;;;;;;;78.30;32.70;;;;;;;;;;5033097;28;20125;-77
2022/12/17 18:38:33;;;;;;;72.85;31.33;;;;;;;;;;5036230;28;20041;-77
2022/12/17 18:43:21;;;;;;;79.60;33.10;;;;;;;;;;5036273;28;20044;-77
2022/12/17 18:43:50;;;;;;;78.35;35.38;;;;;;;;;;5033166;28;20061;-77
2022/12/17 18:46:16;;;;;;;67.97;29.02;;;;;;;;;;5015909;28;20045;-77
2022/12/17 18:48:42;;;;;;;70.57;30.25;;;;;;;;;;5032720;28;20117;-77
2022/12/17 18:51:08;;;;;;;72.25;31.38;;;;;;;;;;5032711;28;20080;-77
2022/12/17 18:53:34;;;;;;;71.65;30.65;;;;;;;;;;5032299;28;20060;-77
2022/12/17 18:56:10;;;;;;;83.53;35.80;;;;;;;;;;5033234;28;20049;-79
2022/12/17 18:58:36;;;;;;;85.82;35.83;;;;;;;;;;5016143;28;20064;-77
2022/12/17 19:01:02;;;;;;;76.30;32.55;;;;;;;;;;5029804;28;20054;-77
2022/12/17 19:03:28;;;;;;;73.68;31.40;;;;;;;;;;5005201;28;20042;-77
2022/12/17 19:05:55;;;;;;;78.03;33.28;;;;;;;;;;5014303;28;20042;-77
2022/12/17 19:08:21;;;;;;;83.05;33.50;;;;;;;;;;5032431;28;20049;-77
2022/12/17 19:10:47;;;;;;;76.28;31.95;;;;;;;;;;5035554;28;20041;-77
2022/12/17 19:13:13;;;;;;;78.22;31.10;;;;;;;;;;5033357;28;20494;-77
2022/12/17 19:15:39;;;;;;;82.57;34.53;;;;;;;;;;5032453;28;20142;-77
2022/12/17 19:18:05;;;;;;;80.45;34.85;;;;;;;;;;5031405;28;20053;-77
2022/12/17 19:20:31;;;;;;;74.72;33.60;;;;;;;;;;5035467;28;20037;-77
2022/12/17 19:22:57;;;;;;;82.55;33.22;;;;;;;;;;5032975;28;20037;-77
2022/12/17 19:25:23;;;;;;;83.20;35.78;;;;;;;;;;5032593;28;20716;-77
2022/12/17 19:27:49;;;;;;;68.15;29.95;;;;;;;;;;5032445;28;20049;-77
2022/12/17 19:30:15;;;;;;;85.43;34.47;;;;;;;;;;5032659;28;20041;-78
2022/12/17 19:32:41;;;;;;;76.88;31.98;;;;;;;;;;5034331;28;20052;-78
2022/12/17 19:35:07;;;;;;;78.30;32.75;;;;;;;;;;5037312;28;20065;-77
2022/12/17 19:37:33;;;;;;;74.93;32.28;;;;;;;;;;5034581;28;20048;-77
2022/12/17 19:39:59;;;;;;;79.57;29.23;;;;;;;;;;5036096;28;20694;-77
2022/12/17 19:42:26;;;;;;;77.20;29.52;;;;;;;;;;5036546;28;20041;-77
2022/12/17 19:44:56;;;;;;;73.43;30.13;;;;;;;;;;5035820;28;20053;-77
2022/12/17 19:47:22;;;;;;;88.40;37.45;;;;;;;;;;5035564;28;20042;-77
2022/12/17 19:49:49;;;;;;;74.70;30.63;;;;;;;;;;5035470;28;20044;-77
2022/12/17 19:52:15;;;;;;;77.82;31.20;;;;;;;;;;5035939;28;20056;-77
2022/12/17 19:54:41;;;;;;;81.93;33.40;;;;;;;;;;5035914;28;20068;-77
2022/12/17 19:57:07;;;;;;;77.57;32.10;;;;;;;;;;5045320;28;20041;-77
2022/12/17 19:59:33;;;;;;;77.40;32.80;;;;;;;;;;5035744;28;20104;-77
2022/12/17 20:02:02;;;;;;;76.32;32.13;;;;;;;;;;5035791;28;20041;-77
2022/12/17 20:04:29;;;;;;;81.65;33.47;;;;;;;;;;5034912;28;20051;-77
2022/12/17 20:06:55;;;;;;;74.47;30.70;;;;;;;;;;5035354;28;20042;-77
2022/12/17 20:09:21;;;;;;;79.35;31.35;;;;;;;;;;5035052;28;20045;-77
2022/12/17 20:11:47;;;;;;;79.88;32.33;;;;;;;;;;5043450;28;20059;-77
2022/12/17 20:14:15;;;;;;;82.90;31.15;;;;;;;;;;5035571;28;20438;-77
2022/12/17 20:16:42;;;;;;;72.30;30.05;;;;;;;;;;5035021;28;20049;-77
2022/12/17 20:19:11;;;;;;;83.82;30.67;;;;;;;;;;5035129;28;20152;-77
2022/12/17 20:21:37;;;;;;;75.97;32.55;;;;;;;;;;5035475;28;20126;-77
2022/12/17 20:24:03;;;;;;;81.28;31.05;;;;;;;;;;5035429;28;20045;-77
2022/12/17 20:26:29;;;;;;;77.10;30.00;;;;;;;;;;5041161;28;20056;-77
2022/12/17 20:28:55;;;;;;;83.22;31.48;;;;;;;;;;5033734;28;20044;-77
2022/12/17 20:31:21;;;;;;;83.30;32.40;;;;;;;;;;5035110;28;20049;-77
2022/12/17 20:33:47;;;;;;;83.68;31.63;;;;;;;;;;5019233;28;20056;-77
2022/12/17 20:36:15;;;;;;;78.82;33.30;;;;;;;;;;5027225;28;20546;-77
2022/12/17 20:38:42;;;;;;;66.85;29.33;;;;;;;;;;5047824;28;20092;-77
2022/12/17 20:41:12;;;;;;;75.43;28.85;;;;;;;;;;5034930;28;20045;-77
2022/12/17 20:43:38;;;;;;;75.40;29.17;;;;;;;;;;5024855;28;20051;-76
2022/12/17 20:46:04;;;;;;;76.45;28.98;;;;;;;;;;5033802;28;20546;-77
2022/12/17 20:48:31;;;;;;;77.57;30.23;;;;;;;;;;5043591;28;20046;-77
2022/12/17 20:50:57;;;;;;;82.55;30.90;;;;;;;;;;5040148;28;20041;-77
2022/12/17 20:53:23;;;;;;;73.18;28.58;;;;;;;;;;5022423;28;20041;-77
2022/12/17 20:55:58;;;;;;;75.30;28.75;;;;;;;;;;5035512;28;20049;-77
2022/12/17 20:58:24;;;;;;;69.27;28.30;;;;;;;;;;5033980;28;20161;-77
2022/12/17 21:00:51;;;;;;;77.00;30.05;;;;;;;;;;5034664;28;20053;-77
2022/12/17 21:03:17;;;;;;;75.72;33.15;;;;;;;;;;5034390;28;20046;-77
2022/12/17 21:05:43;;;;;;;69.47;29.65;;;;;;;;;;5034648;28;20398;-77
2022/12/17 21:08:09;;;;;;;77.75;29.40;;;;;;;;;;5034623;28;20041;-77
2022/12/17 21:10:35;;;;;;;86.28;33.80;;;;;;;;;;5036544;28;20124;-77
2022/12/17 21:15:49;;;;;;;76.63;30.45;;;;;;;;;;5034221;28;20125;-77
2022/12/17 21:18:15;;;;;;;79.75;32.40;;;;;;;;;;5039572;28;20057;-77
2022/12/17 21:20:41;;;;;;;85.80;31.75;;;;;;;;;;5034341;28;20038;-77
2022/12/17 21:23:07;;;;;;;76.00;27.80;;;;;;;;;;5039859;28;20102;-77
2022/12/17 21:25:36;;;;;;;73.78;28.83;;;;;;;;;;5038503;28;20050;-77
2022/12/17 21:28:02;;;;;;;84.32;30.65;;;;;;;;;;5034071;28;20068;-77
2022/12/17 21:30:28;;;;;;;75.43;29.13;;;;;;;;;;5033282;28;20053;-76
2022/12/17 21:32:54;;;;;;;84.47;31.70;;;;;;;;;;5034326;28;20517;-76
2022/12/17 21:35:20;;;;;;;85.07;30.50;;;;;;;;;;5032680;28;20474;-76
2022/12/17 21:37:46;;;;;;;83.53;30.05;;;;;;;;;;5034213;28;20485;-76
2022/12/17 21:40:12;;;;;;;75.53;28.70;;;;;;;;;;5024228;28;20153;-76
2022/12/17 21:45:23;;;;;;;83.60;29.23;;;;;;;;;;5024529;28;20042;-77
2022/12/17 21:47:49;;;;;;;76.93;29.45;;;;;;;;;;5044106;28;20072;-77
2022/12/17 21:50:15;;;;;;;78.97;30.92;;;;;;;;;;5033400;28;20091;-76
2022/12/17 21:52:41;;;;;;;85.07;30.80;;;;;;;;;;5033847;28;20049;-76
2022/12/17 21:55:07;;;;;;;93.00;33.22;;;;;;;;;;5035331;28;20088;-76
2022/12/17 21:57:33;;;;;;;75.70;28.67;;;;;;;;;;5034337;28;20049;-76
2022/12/17 21:59:59;;;;;;;78.72;29.48;;;;;;;;;;5033697;28;20065;-76
2022/12/17 22:02:25;;;;;;;84.65;31.60;;;;;;;;;;5033516;28;20042;-76
2022/12/17 22:04:51;;;;;;;81.43;31.27;;;;;;;;;;5016292;28;20057;-76
2022/12/17 22:07:17;;;;;;;79.53;29.80;;;;;;;;;;5031835;28;20041;-76
2022/12/17 22:09:43;;;;;;;71.65;30.25;;;;;;;;;;5032804;28;20397;-77
2022/12/17 22:14:54;;;;;;;77.07;31.88;;;;;;;;;;5033500;28;20057;-76
2022/12/17 22:17:20;;;;;;;77.50;30.95;;;;;;;;;;5033307;28;20073;-77
2022/12/17 22:19:46;;;;;;;69.05;28.45;;;;;;;;;;5032783;28;20069;-76
2022/12/17 22:22:12;;;;;;;72.68;27.67;;;;;;;;;;5014614;28;20434;-76
2022/12/17 22:24:38;;;;;;;75.32;29.77;;;;;;;;;;5033736;28;20620;-76
2022/12/17 22:27:04;;;;;;;82.47;28.73;;;;;;;;;;5033660;28;20124;-76
2022/12/17 22:34:59;;;;;;;75.57;31.33;;;;;;;;;;5032705;28;20405;-75
2022/12/17 22:37:26;;;;;;;81.30;30.05;;;;;;;;;;5030609;28;20040;-76
2022/12/17 22:39:52;;;;;;;72.60;28.50;;;;;;;;;;5015422;28;20041;-76
2022/12/17 22:45:02;;;;;;;71.18;28.27;;;;;;;;;;5015761;28;20069;-76
2022/12/17 22:47:28;;;;;;;79.55;29.92;;;;;;;;;;5039811;28;20067;-76
2022/12/17 22:49:54;;;;;;;74.85;29.73;;;;;;;;;;5032686;28;20466;-76
2022/12/17 22:52:21;;;;;;;77.13;29.73;;;;;;;;;;5033497;28;20045;-76
2022/12/17 22:54:47;;;;;;;89.65;32.10;;;;;;;;;;5015187;28;20049;-76
2022/12/17 22:57:13;;;;;;;83.97;30.92;;;;;;;;;;5033344;28;20084;-76
2022/12/17 22:59:39;;;;;;;78.28;31.80;;;;;;;;;;5015724;28;20089;-76
2022/12/17 23:02:06;;;;;;;70.20;28.73;;;;;;;;;;5046777;28;20152;-76
2022/12/17 23:04:32;;;;;;;87.38;29.40;;;;;;;;;;5032931;28;20049;-76
2022/12/17 23:06:58;;;;;;;87.78;31.42;;;;;;;;;;5031277;28;20096;-76
2022/12/17 23:09:24;;;;;;;84.18;30.40;;;;;;;;;;5033628;28;20150;-76
2022/12/17 23:11:50;;;;;;;79.93;31.20;;;;;;;;;;5036489;28;20053;-76
2022/12/17 23:14:17;;;;;;;79.53;30.20;;;;;;;;;;5036778;28;20045;-76
2022/12/17 23:16:43;;;;;;;77.97;30.02;;;;;;;;;;5043266;28;20064;-76
2022/12/17 23:19:09;;;;;;;72.78;28.08;;;;;;;;;;5041440;28;20404;-76
2022/12/17 23:21:35;;;;;;;87.90;34.63;;;;;;;;;;5041938;28;20049;-76
2022/12/17 23:24:02;;;;;;;82.57;31.00;;;;;;;;;;5040576;28;20064;-75
2022/12/17 23:26:29;;;;;;;83.45;30.75;;;;;;;;;;5036817;28;20077;-75
2022/12/17 23:28:57;;;;;;;75.05;29.75;;;;;;;;;;5035592;28;20049;-75
2022/12/17 23:31:23;;;;;;;82.35;32.25;;;;;;;;;;5036789;28;20052;-75
2022/12/17 23:33:49;;;;;;;79.93;30.08;;;;;;;;;;5036507;28;20045;-76
2022/12/17 23:36:18;;;;;;;79.38;30.70;;;;;;;;;;5034609;28;20385;-76
2022/12/17 23:38:44;;;;;;;89.63;32.03;;;;;;;;;;5036302;28;20091;-76
2022/12/17 23:41:15;;;;;;;84.35;32.35;;;;;;;;;;5036301;28;20048;-76
2022/12/17 23:43:41;;;;;;;84.55;33.17;;;;;;;;;;5036074;28;20544;-76
2022/12/17 23:46:07;;;;;;;82.13;32.22;;;;;;;;;;5036742;28;20045;-76
2022/12/17 23:48:35;;;;;;;73.70;30.73;;;;;;;;;;5036322;28;20049;-76
2022/12/17 23:51:02;;;;;;;83.15;30.88;;;;;;;;;;5038471;28;20062;-76
2022/12/17 23:53:28;;;;;;;75.10;29.70;;;;;;;;;;5050757;28;20459;-76
2022/12/17 23:55:54;;;;;;;77.32;31.02;;;;;;;;;;5056142;28;20130;-75
2022/12/17 23:58:21;;;;;;;84.38;31.77;;;;;;;;;;5026154;28;20127;-76
